Time;durP1;ratioP1;P1;durP2;ratioP2;P2;SDS_P1;SDS_P2;PMS_P1;PMS_P2;Temp;Humidity;BMP_temperature;BMP_pressure;BME280_temperature;BME280_humidity;BME280_pressure;Samples;Min_cycle;Max_cycle;Signal;HPM_P1;HPM_P2
2021/10/13 00:00:55;;;;;;;;;11.00;10.00;;;;;13.36;68.36;101642.41;5056721;28;51497;-60
2021/10/13 00:03:20;;;;;;;;;11.25;9.50;;;;;13.34;68.30;101653.13;5056120;28;67390;-60
2021/10/13 00:05:46;;;;;;;;;14.25;10.25;;;;;13.30;68.51;101653.47;5038756;28;45556;-60
2021/10/13 00:08:11;;;;;;;;;11.50;10.00;;;;;13.27;68.30;101643.16;5055762;28;73029;-61
2021/10/13 00:10:37;;;;;;;;;9.50;7.00;;;;;13.25;68.16;101647.75;5056033;28;63074;-60
2021/10/13 00:13:02;;;;;;;;;9.75;9.50;;;;;13.21;68.38;101641.88;5056588;28;51223;-60
2021/10/13 00:15:27;;;;;;;;;9.75;8.50;;;;;13.18;68.53;101639.50;5056014;28;59559;-60
2021/10/13 00:17:53;;;;;;;;;9.75;8.25;;;;;13.16;68.50;101641.41;5038408;28;46379;-60
2021/10/13 00:20:18;;;;;;;;;13.25;11.50;;;;;13.13;68.80;101641.66;5056665;28;45394;-60
2021/10/13 00:22:43;;;;;;;;;17.25;12.75;;;;;13.11;68.52;101643.59;5038151;28;45475;-60
2021/10/13 00:25:09;;;;;;;;;15.75;12.25;;;;;13.09;68.29;101646.38;5055818;28;64625;-60
2021/10/13 00:27:34;;;;;;;;;12.50;12.00;;;;;13.05;68.80;101644.94;5056368;28;46508;-60
2021/10/13 00:30:00;;;;;;;;;11.75;11.00;;;;;13.00;68.22;101636.56;5056455;28;45365;-60
2021/10/13 00:32:25;;;;;;;;;14.00;12.00;;;;;12.95;68.32;101644.88;5038197;28;45266;-60
2021/10/13 00:34:51;;;;;;;;;13.25;12.25;;;;;12.88;68.49;101655.06;5056393;28;45585;-60
2021/10/13 00:37:16;;;;;;;;;12.50;12.50;;;;;12.82;68.98;101652.91;5056162;28;45352;-60
2021/10/13 00:39:41;;;;;;;;;13.25;12.00;;;;;12.77;68.79;101658.56;5056229;28;45288;-60
2021/10/13 00:42:07;;;;;;;;;15.75;12.00;;;;;12.73;68.54;101661.56;5055595;28;64867;-60
2021/10/13 00:44:32;;;;;;;;;13.00;11.50;;;;;12.71;69.10;101668.78;5055439;28;65263;-59
2021/10/13 00:47:00;;;;;;;;;13.00;12.00;;;;;12.66;68.86;101671.75;5056073;28;45277;-59
2021/10/13 00:49:25;;;;;;;;;15.25;12.00;;;;;12.61;69.16;101679.19;5056190;28;45331;-60
2021/10/13 00:51:51;;;;;;;;;18.00;12.75;;;;;12.58;68.99;101679.44;5038388;28;45340;-60
2021/10/13 00:54:16;;;;;;;;;10.50;10.00;;;;;12.57;69.20;101683.03;5038284;28;45563;-60
2021/10/13 00:56:41;;;;;;;;;13.25;12.50;;;;;12.56;68.94;101684.84;5055313;28;68772;-60
2021/10/13 00:59:07;;;;;;;;;12.50;12.50;;;;;12.54;69.16;101693.81;5055364;28;63659;-60
2021/10/13 01:01:32;;;;;;;;;13.75;12.00;;;;;12.52;68.95;101701.84;5056043;28;47383;-60
2021/10/13 01:04:19;;;;;;;;;12.00;11.00;;;;;12.53;69.05;101690.34;5056103;28;45525;-60
2021/10/13 01:06:53;;;;;;;;;11.50;10.00;;;;;12.50;68.53;101697.66;5055721;28;45526;-60
2021/10/13 01:09:26;;;;;;;;;12.75;11.25;;;;;12.46;68.93;101699.69;5037876;28;45791;-60
2021/10/13 01:12:09;;;;;;;;;10.50;9.50;;;;;12.45;68.80;101708.56;5056166;28;45270;-59
2021/10/13 01:15:21;;;;;;;;;12.75;11.00;;;;;12.41;68.55;101707.13;5056150;28;45368;-60
2021/10/13 01:17:57;;;;;;;;;16.00;11.75;;;;;12.37;68.97;101706.53;5055045;28;46786;-60
2021/10/13 01:20:44;;;;;;;;;11.25;10.00;;;;;12.35;68.48;101707.59;5022079;28;45982;-60
2021/10/13 01:23:25;;;;;;;;;11.50;9.00;;;;;12.32;68.86;101703.41;5037737;28;45466;-59
2021/10/13 01:26:20;;;;;;;;;14.00;10.00;;;;;12.31;68.52;101707.00;5055783;28;45286;-59
2021/10/13 01:28:46;;;;;;;;;11.25;9.25;;;;;12.28;68.22;101702.78;5055618;28;46259;-60
2021/10/13 01:31:22;;;;;;;;;9.50;7.50;;;;;12.26;68.44;101698.63;5036926;28;67917;-60
2021/10/13 01:34:10;;;;;;;;;9.75;8.00;;;;;12.23;68.77;101697.03;5038009;28;45236;-60
2021/10/13 01:36:43;;;;;;;;;11.75;8.25;;;;;12.21;68.69;101700.75;5037597;28;45607;-60
2021/10/13 01:39:09;;;;;;;;;8.75;8.75;;;;;12.21;68.26;101696.31;5038115;28;46592;-60
2021/10/13 01:41:35;;;;;;;;;13.00;9.00;;;;;12.19;68.04;101700.88;5020412;28;66148;-60
2021/10/13 01:44:00;;;;;;;;;9.50;8.75;;;;;12.16;67.94;101701.13;5039804;28;45391;-59
2021/10/13 01:46:26;;;;;;;;;11.75;9.00;;;;;12.12;68.18;101703.13;5041301;28;45423;-59
2021/10/13 01:48:51;;;;;;;;;8.25;8.25;;;;;12.05;68.06;101694.03;5023276;28;70985;-60
2021/10/13 01:51:16;;;;;;;;;10.50;8.00;;;;;12.02;67.96;101696.91;5040013;28;68454;-60
2021/10/13 01:53:42;;;;;;;;;10.75;9.00;;;;;11.98;68.17;101696.28;5023682;28;61192;-60
2021/10/13 01:56:07;;;;;;;;;11.25;8.50;;;;;11.96;68.16;101699.97;5024211;28;45463;-59
2021/10/13 01:58:33;;;;;;;;;9.75;8.50;;;;;11.96;68.50;101707.84;5023985;28;50534;-60
2021/10/13 02:00:59;;;;;;;;;8.50;8.50;;;;;11.93;68.80;101703.69;5040687;28;45387;-60
2021/10/13 02:03:25;;;;;;;;;10.00;9.00;;;;;11.90;68.35;101693.38;5023656;28;61076;-59
2021/10/13 02:05:53;;;;;;;;;8.25;8.00;;;;;11.88;68.25;101700.56;5040615;28;45392;-60
2021/10/13 02:08:19;;;;;;;;;13.50;9.25;;;;;11.85;68.16;101693.72;5040770;28;48182;-60
2021/10/13 02:10:45;;;;;;;;;13.25;11.00;;;;;11.84;68.07;101694.69;5024104;28;45455;-60
2021/10/13 02:13:11;;;;;;;;;11.75;9.75;;;;;11.82;68.16;101691.31;5024204;28;45391;-60
2021/10/13 02:15:36;;;;;;;;;13.00;9.75;;;;;11.80;68.27;101701.13;5023470;28;60269;-60
2021/10/13 02:18:02;;;;;;;;;9.00;7.75;;;;;11.75;68.08;101697.16;5023256;28;65974;-59
2021/10/13 02:20:28;;;;;;;;;10.50;8.50;;;;;11.71;68.45;101705.28;5023960;28;45424;-60
2021/10/13 02:22:55;;;;;;;;;9.00;8.00;;;;;11.67;68.30;101697.75;5058246;28;45512;-60
2021/10/13 02:25:21;;;;;;;;;11.75;9.50;;;;;11.64;68.43;101706.72;5040563;28;45377;-60
2021/10/13 02:28:20;;;;;;;;;8.25;7.75;;;;;11.61;68.13;101712.22;5040065;28;46241;-60
2021/10/13 02:30:45;;;;;;;;;15.25;10.25;;;;;11.58;67.76;101712.44;5032128;28;45838;-60
2021/10/13 02:33:11;;;;;;;;;10.75;9.25;;;;;11.55;67.75;101713.47;5058214;28;45417;-60
2021/10/13 02:35:36;;;;;;;;;11.00;8.50;;;;;11.51;67.58;101717.28;5058230;28;45506;-60
2021/10/13 02:38:02;;;;;;;;;7.50;7.50;;;;;11.45;67.34;101716.91;5055950;28;45627;-59
2021/10/13 02:40:27;;;;;;;;;9.25;7.25;;;;;11.39;66.78;101719.03;5058051;28;45343;-60
2021/10/13 02:42:52;;;;;;;;;9.00;7.25;;;;;11.34;66.61;101720.34;5057128;28;65799;-60
2021/10/13 02:45:18;;;;;;;;;9.25;6.75;;;;;11.29;66.72;101723.28;5057922;28;54429;-59
2021/10/13 02:47:47;;;;;;;;;9.50;7.25;;;;;11.24;66.60;101730.66;5023481;28;46489;-60
2021/10/13 02:50:26;;;;;;;;;9.50;7.50;;;;;11.18;67.13;101721.44;5023469;28;45774;-60
2021/10/13 02:53:08;;;;;;;;;8.75;8.00;;;;;11.13;67.10;101723.56;5058243;28;45314;-60
2021/10/13 02:55:36;;;;;;;;;6.25;6.25;;;;;11.12;66.57;101742.94;5039786;28;45329;-60
2021/10/13 02:58:21;;;;;;;;;7.75;7.75;;;;;11.09;67.13;101743.16;5039773;28;46067;-60
2021/10/13 03:00:47;;;;;;;;;9.00;7.00;;;;;11.06;66.42;101738.97;5039974;28;45734;-59
2021/10/13 03:03:17;;;;;;;;;11.50;7.75;;;;;11.03;66.89;101746.22;5040066;28;45307;-59
2021/10/13 03:05:43;;;;;;;;;10.00;7.75;;;;;11.03;66.87;101754.09;5040135;28;45360;-60
2021/10/13 03:08:09;;;;;;;;;8.00;6.50;;;;;10.99;66.41;101743.78;5022984;28;53288;-59
2021/10/13 03:10:34;;;;;;;;;7.50;7.25;;;;;10.97;66.16;101744.88;5039669;28;45447;-59
2021/10/13 03:13:00;;;;;;;;;9.00;9.00;;;;;10.95;66.44;101742.31;5057815;28;45343;-59
2021/10/13 03:15:26;;;;;;;;;7.00;7.00;;;;;10.93;66.16;101736.34;5023212;28;45269;-59
2021/10/13 03:17:53;;;;;;;;;7.50;6.00;;;;;10.93;66.22;101728.44;5039495;28;46584;-60
2021/10/13 03:20:19;;;;;;;;;6.50;6.50;;;;;10.91;66.26;101735.59;5023260;28;45402;-60
2021/10/13 03:22:44;;;;;;;;;7.50;7.50;;;;;10.90;66.46;101735.72;5022863;28;45421;-59
2021/10/13 03:25:09;;;;;;;;;8.00;6.00;;;;;10.89;66.42;101739.31;5023098;28;45170;-59
2021/10/13 03:27:35;;;;;;;;;9.50;7.00;;;;;10.86;66.30;101737.75;5039356;28;45326;-60
2021/10/13 03:30:00;;;;;;;;;8.00;6.75;;;;;10.84;66.63;101742.28;5021978;28;63448;-59
2021/10/13 03:32:26;;;;;;;;;8.00;5.00;;;;;10.82;66.34;101746.78;5057283;28;45669;-59
2021/10/13 03:34:51;;;;;;;;;8.00;4.75;;;;;10.80;66.28;101749.50;5057428;28;45646;-60
2021/10/13 03:37:17;;;;;;;;;8.00;6.00;;;;;10.77;66.59;101756.78;5056876;28;46355;-59
2021/10/13 03:39:45;;;;;;;;;8.50;6.50;;;;;10.75;66.81;101756.88;5057010;28;45240;-60
2021/10/13 03:42:11;;;;;;;;;11.25;8.00;;;;;10.74;66.88;101760.47;5039320;28;45343;-59
2021/10/13 03:44:36;;;;;;;;;7.75;7.25;;;;;10.71;66.45;101757.22;5057144;28;45454;-60
2021/10/13 03:47:02;;;;;;;;;9.00;6.25;;;;;10.68;66.58;101761.75;5038854;28;46539;-59
2021/10/13 03:49:27;;;;;;;;;12.00;8.75;;;;;10.65;66.95;101758.47;5039173;28;46276;-59
2021/10/13 03:51:52;;;;;;;;;6.25;6.00;;;;;10.61;66.88;101760.47;5056359;28;62615;-59
2021/10/13 03:54:18;;;;;;;;;11.00;7.25;;;;;10.58;66.83;101757.22;5056183;28;65575;-60
2021/10/13 03:56:43;;;;;;;;;7.00;7.00;;;;;10.54;66.88;101765.31;5055742;28;73586;-60
2021/10/13 03:59:08;;;;;;;;;7.25;6.00;;;;;10.52;66.87;101769.84;5056792;28;45445;-59
2021/10/13 04:01:34;;;;;;;;;8.00;7.00;;;;;10.47;66.90;101771.94;5038977;28;45421;-59
2021/10/13 04:03:59;;;;;;;;;10.50;7.50;;;;;10.44;66.89;101776.56;5056334;28;57169;-59
2021/10/13 04:06:24;;;;;;;;;7.25;7.00;;;;;10.41;67.25;101782.88;5054908;28;72702;-59
2021/10/13 04:08:50;;;;;;;;;9.00;7.25;;;;;10.38;67.30;101786.50;5055662;28;67977;-59
2021/10/13 04:11:15;;;;;;;;;9.00;7.00;;;;;10.36;66.95;101784.94;5055974;28;62902;-60
2021/10/13 04:13:41;;;;;;;;;8.75;7.75;;;;;10.35;66.79;101783.25;5056444;28;52287;-60
2021/10/13 04:16:06;;;;;;;;;7.50;7.00;;;;;10.33;66.99;101785.13;5056509;28;45336;-59
2021/10/13 04:18:32;;;;;;;;;7.75;7.25;;;;;10.30;66.83;101787.97;5056531;28;45422;-59
2021/10/13 04:20:57;;;;;;;;;9.50;8.00;;;;;10.27;67.11;101785.56;5056087;28;57249;-59
2021/10/13 04:23:23;;;;;;;;;6.00;6.00;;;;;10.22;67.05;101794.56;5055751;28;65180;-62
2021/10/13 04:25:48;;;;;;;;;6.50;6.00;;;;;10.22;67.44;101797.19;5055886;28;66368;-62
2021/10/13 04:28:13;;;;;;;;;7.75;6.75;;;;;10.19;67.43;101786.91;5056468;28;45218;-60
2021/10/13 04:30:39;;;;;;;;;13.50;9.25;;;;;10.19;67.52;101791.31;5055833;28;62225;-59
2021/10/13 04:33:04;;;;;;;;;8.50;7.25;;;;;10.16;67.07;101792.34;5056517;28;45479;-60
2021/10/13 04:35:31;;;;;;;;;8.25;7.00;;;;;10.14;67.07;101799.50;5021906;28;46433;-59
2021/10/13 04:37:56;;;;;;;;;7.50;6.25;;;;;10.13;66.91;101802.25;5056172;28;46156;-60
2021/10/13 04:40:21;;;;;;;;;11.25;8.00;;;;;10.11;67.17;101802.31;5055801;28;62370;-59
2021/10/13 04:42:47;;;;;;;;;11.25;7.00;;;;;10.09;67.33;101805.06;5055775;28;61342;-60
2021/10/13 04:45:12;;;;;;;;;9.50;7.75;;;;;10.09;66.80;101807.69;5038093;28;52751;-60
2021/10/13 04:47:38;;;;;;;;;9.00;6.75;;;;;10.07;66.88;101811.34;5056055;28;45449;-59
2021/10/13 04:50:03;;;;;;;;;9.50;7.50;;;;;10.06;66.95;101810.53;5055556;28;64133;-59
2021/10/13 04:52:29;;;;;;;;;8.50;7.25;;;;;10.02;67.30;101811.66;5056191;28;45295;-60
2021/10/13 04:54:54;;;;;;;;;7.25;7.00;;;;;10.02;67.25;101813.47;5056001;28;45427;-59
2021/10/13 04:57:20;;;;;;;;;7.25;7.00;;;;;10.00;66.87;101817.97;5037063;28;66753;-59
2021/10/13 04:59:45;;;;;;;;;10.25;8.00;;;;;9.95;67.22;101815.63;5038184;28;45416;-59
2021/10/13 05:02:10;;;;;;;;;9.50;8.00;;;;;9.92;67.49;101816.69;5056026;28;45379;-59
2021/10/13 05:04:36;;;;;;;;;7.00;7.00;;;;;9.90;67.41;101815.94;5037096;28;69315;-59
2021/10/13 05:07:01;;;;;;;;;9.00;8.00;;;;;9.87;67.57;101813.50;5055053;28;67457;-59
2021/10/13 05:09:26;;;;;;;;;9.50;9.50;;;;;9.84;67.59;101813.72;5056019;28;45245;-59
2021/10/13 05:11:52;;;;;;;;;10.25;9.00;;;;;9.83;67.74;101821.66;5055273;28;64173;-59
2021/10/13 05:14:17;;;;;;;;;8.25;8.25;;;;;9.82;67.40;101826.09;5055732;28;45334;-60
2021/10/13 05:16:43;;;;;;;;;12.50;7.50;;;;;9.79;67.36;101818.41;5037568;28;45363;-59
2021/10/13 05:19:08;;;;;;;;;7.75;7.75;;;;;9.75;67.41;101830.91;5058267;28;45691;-59
2021/10/13 05:21:34;;;;;;;;;13.25;9.00;;;;;9.73;67.52;101831.94;5059369;28;45238;-59
2021/10/13 05:23:59;;;;;;;;;11.00;8.00;;;;;9.70;67.50;101838.22;5059025;28;45540;-59
2021/10/13 05:26:25;;;;;;;;;7.00;7.00;;;;;9.68;67.72;101849.75;5058577;28;67149;-59
2021/10/13 05:28:50;;;;;;;;;9.00;9.00;;;;;9.64;67.72;101846.50;5059283;28;45359;-59
2021/10/13 05:31:15;;;;;;;;;15.50;12.75;;;;;9.63;67.64;101858.75;5059220;28;45590;-60
2021/10/13 05:33:41;;;;;;;;;8.00;7.50;;;;;9.59;67.63;101845.94;5058317;28;66219;-60
2021/10/13 05:36:06;;;;;;;;;8.75;7.00;;;;;9.56;67.54;101852.22;5058128;28;64949;-59
2021/10/13 05:38:31;;;;;;;;;6.50;6.00;;;;;9.54;67.65;101853.25;5058262;28;57647;-60
2021/10/13 05:40:57;;;;;;;;;7.50;7.25;;;;;9.52;67.82;101858.63;5058155;28;67991;-59
2021/10/13 05:43:22;;;;;;;;;10.25;8.25;;;;;9.48;68.03;101855.31;5058702;28;46138;-59
2021/10/13 05:45:48;;;;;;;;;14.50;9.25;;;;;9.48;68.25;101855.31;5058292;28;60982;-60
2021/10/13 05:48:14;;;;;;;;;12.75;8.50;;;;;9.46;68.39;101853.75;5058879;28;45626;-59
2021/10/13 05:50:39;;;;;;;;;8.25;7.25;;;;;9.44;68.58;101858.25;5040758;28;45531;-61
2021/10/13 05:53:05;;;;;;;;;7.25;7.25;;;;;9.41;68.58;101854.03;5057898;28;67876;-59
2021/10/13 05:55:30;;;;;;;;;12.00;9.50;;;;;9.42;68.55;101853.09;5058846;28;45360;-59
2021/10/13 05:57:55;;;;;;;;;10.50;8.00;;;;;9.41;68.87;101863.69;5057408;28;68224;-59
2021/10/13 06:00:26;;;;;;;;;11.00;11.00;;;;;9.39;68.94;101865.56;5058828;28;45580;-59
2021/10/13 06:02:51;;;;;;;;;13.00;11.00;;;;;9.39;68.96;101866.38;5058325;28;47243;-60
2021/10/13 06:05:17;;;;;;;;;11.50;8.75;;;;;9.38;68.96;101862.06;5057673;28;59075;-59
2021/10/13 06:07:42;;;;;;;;;14.25;11.75;;;;;9.38;69.08;101864.69;5058820;28;45387;-59
2021/10/13 06:10:08;;;;;;;;;13.00;11.25;;;;;9.38;68.92;101866.50;5058626;28;45318;-59
2021/10/13 06:12:33;;;;;;;;;12.00;12.00;;;;;9.36;69.13;101871.81;5023931;28;46077;-59
2021/10/13 06:14:59;;;;;;;;;13.25;10.25;;;;;9.34;69.30;101871.94;5058411;28;45296;-60
2021/10/13 06:17:24;;;;;;;;;11.50;8.00;;;;;9.34;69.08;101869.31;5058242;28;45246;-60
2021/10/13 06:19:50;;;;;;;;;14.25;12.50;;;;;9.32;69.31;101865.06;5057623;28;63557;-61
2021/10/13 06:22:15;;;;;;;;;12.25;8.25;;;;;9.33;69.28;101874.63;5058095;28;52236;-61
2021/10/13 06:24:40;;;;;;;;;13.75;10.75;;;;;9.32;69.12;101871.19;5057825;28;45213;-61
2021/10/13 06:27:06;;;;;;;;;13.25;12.00;;;;;9.33;69.27;101878.13;5039355;28;70491;-60
2021/10/13 06:29:32;;;;;;;;;12.25;11.75;;;;;9.32;69.12;101889.53;5038389;28;62139;-62
2021/10/13 06:31:57;;;;;;;;;12.25;11.50;;;;;9.31;69.12;101889.63;5057860;28;45507;-62
2021/10/13 06:34:23;;;;;;;;;8.00;8.00;;;;;9.30;69.52;101887.94;5058070;28;45283;-61
2021/10/13 06:36:48;;;;;;;;;11.00;11.00;;;;;9.31;69.45;101897.50;5057203;28;64382;-61
2021/10/13 06:39:13;;;;;;;;;12.00;11.25;;;;;9.29;69.48;101897.59;5057135;28;66809;-61
2021/10/13 06:41:39;;;;;;;;;14.75;11.25;;;;;9.33;69.59;101900.88;5038593;28;65430;-61
2021/10/13 06:44:05;;;;;;;;;14.25;12.25;;;;;9.33;69.71;101899.09;5057877;28;45194;-62
2021/10/13 06:46:30;;;;;;;;;16.00;16.00;;;;;9.35;69.85;101896.38;5057524;28;45454;-61
2021/10/13 06:48:55;;;;;;;;;17.00;14.75;;;;;9.38;69.72;101904.06;5057622;28;45605;-62
2021/10/13 06:51:21;;;;;;;;;15.50;13.00;;;;;9.40;69.98;101898.72;5057697;28;46566;-62
2021/10/13 06:53:46;;;;;;;;;15.00;13.75;;;;;9.43;70.08;101894.13;5056660;28;67747;-61
2021/10/13 06:56:13;;;;;;;;;18.50;16.00;;;;;9.47;70.11;101895.63;5057641;28;45368;-62
2021/10/13 06:58:38;;;;;;;;;16.50;14.75;;;;;9.49;70.18;101900.78;5057461;28;45370;-59
2021/10/13 07:01:03;;;;;;;;;18.50;16.25;;;;;9.56;70.32;101912.56;5057056;28;64665;-61
2021/10/13 07:03:29;;;;;;;;;15.00;14.00;;;;;9.59;70.56;101912.38;5056824;28;67588;-62
2021/10/13 07:05:54;;;;;;;;;16.25;12.75;;;;;9.63;70.05;101911.25;5038796;28;60424;-61
2021/10/13 07:08:19;;;;;;;;;13.25;10.75;;;;;9.69;70.12;101917.91;5057038;28;67144;-62
2021/10/13 07:10:45;;;;;;;;;15.00;13.25;;;;;9.73;70.31;101926.41;5057059;28;63128;-61
2021/10/13 07:13:10;;;;;;;;;16.00;13.50;;;;;9.77;70.06;101925.28;5038756;28;65234;-62
2021/10/13 07:15:35;;;;;;;;;13.50;13.50;;;;;9.80;70.39;101928.56;5056958;28;54330;-59
2021/10/13 07:18:01;;;;;;;;;17.75;16.00;;;;;9.86;70.19;101922.09;5038561;28;65783;-61
2021/10/13 07:20:27;;;;;;;;;16.50;14.25;;;;;9.93;70.10;101914.66;5057338;28;45309;-61
2021/10/13 07:22:52;;;;;;;;;15.25;14.75;;;;;9.95;69.90;101921.50;5057010;28;56662;-62
2021/10/13 07:25:22;;;;;;;;;14.50;12.25;;;;;10.01;70.22;101922.88;5056827;28;63594;-62
2021/10/13 07:27:48;;;;;;;;;18.00;14.75;;;;;10.06;70.07;101927.88;5056118;28;45602;-61
2021/10/13 07:30:17;;;;;;;;;14.00;12.50;;;;;10.10;70.44;101934.56;5056488;28;68120;-61
2021/10/13 07:32:42;;;;;;;;;16.00;14.00;;;;;10.12;70.12;101945.81;5057335;28;45388;-62
2021/10/13 07:35:08;;;;;;;;;13.00;12.25;;;;;10.17;70.37;101951.63;5038754;28;64168;-62
2021/10/13 07:37:34;;;;;;;;;15.75;13.00;;;;;10.23;70.01;101950.41;5057176;28;45229;-62
2021/10/13 07:39:59;;;;;;;;;15.00;12.00;;;;;10.26;69.92;101950.22;5039101;28;48042;-61
2021/10/13 07:42:25;;;;;;;;;14.00;11.00;;;;;10.31;70.19;101949.91;5022232;28;45384;-62
2021/10/13 07:44:50;;;;;;;;;17.00;14.75;;;;;10.36;69.88;101948.66;5056449;28;60212;-61
2021/10/13 07:47:16;;;;;;;;;16.75;13.50;;;;;10.42;70.10;101949.22;5055844;28;67305;-61
2021/10/13 07:49:41;;;;;;;;;14.75;13.25;;;;;10.47;69.75;101953.25;5057114;28;45312;-62
2021/10/13 07:52:06;;;;;;;;;10.50;9.00;;;;;10.55;69.68;101947.50;5057005;28;45374;-61
2021/10/13 07:54:32;;;;;;;;;20.50;16.50;;;;;10.66;69.81;101952.03;5056785;28;45240;-62
2021/10/13 07:56:57;;;;;;;;;17.25;15.00;;;;;10.76;69.70;101947.03;5056047;28;64450;-62
2021/10/13 07:59:23;;;;;;;;;16.00;13.75;;;;;10.89;69.11;101954.94;5022056;28;45521;-61
2021/10/13 08:01:48;;;;;;;;;21.00;17.50;;;;;11.03;69.17;101951.34;5036913;28;63759;-59
2021/10/13 08:04:13;;;;;;;;;22.00;16.75;;;;;11.21;68.74;101967.66;5055067;28;58252;-62
2021/10/13 08:06:39;;;;;;;;;16.00;13.75;;;;;11.35;68.47;101957.03;5054912;28;62284;-62
2021/10/13 08:09:11;;;;;;;;;13.50;12.25;;;;;11.50;68.02;101957.75;5036764;28;49815;-59
2021/10/13 08:11:36;;;;;;;;;21.25;16.00;;;;;11.68;67.03;101950.34;5038284;28;45391;-61
2021/10/13 08:14:02;;;;;;;;;18.25;15.00;;;;;11.84;67.32;101959.81;5055494;28;45435;-61
2021/10/13 08:16:27;;;;;;;;;18.25;13.00;;;;;12.02;66.05;101961.16;5054462;28;64222;-61
2021/10/13 08:18:53;;;;;;;;;17.00;15.25;;;;;12.22;66.28;101961.50;5053952;28;73050;-61
2021/10/13 08:21:18;;;;;;;;;16.00;13.75;;;;;12.41;65.28;101960.16;5054148;28;67141;-61
2021/10/13 08:23:43;;;;;;;;;19.75;15.25;;;;;12.59;64.81;101958.81;5054164;28;58434;-61
2021/10/13 08:26:09;;;;;;;;;17.25;12.75;;;;;12.77;64.67;101953.09;5036017;28;67372;-61
2021/10/13 08:28:35;;;;;;;;;11.75;11.75;;;;;12.96;63.92;101960.47;5054285;28;46535;-62
2021/10/13 08:31:01;;;;;;;;;15.00;12.50;;;;;13.17;63.68;101954.50;5054862;28;45522;-61
2021/10/13 08:33:26;;;;;;;;;12.25;9.75;;;;;13.36;62.46;101953.91;5036999;28;55075;-61
2021/10/13 08:35:51;;;;;;;;;15.00;10.75;;;;;13.56;62.03;101962.94;5054961;28;45414;-61
2021/10/13 08:38:17;;;;;;;;;9.25;8.25;;;;;13.73;61.26;101963.41;5055036;28;46032;-61
2021/10/13 08:40:42;;;;;;;;;9.75;9.00;;;;;13.90;60.89;101968.22;5054363;28;46497;-61
2021/10/13 08:43:08;;;;;;;;;9.25;9.00;;;;;14.04;59.77;101968.91;5036645;28;45460;-61
2021/10/13 08:45:34;;;;;;;;;8.75;6.00;;;;;14.12;59.01;101966.47;5053408;28;65103;-62
2021/10/13 08:48:00;;;;;;;;;10.75;7.25;;;;;14.19;58.33;101972.13;5036366;28;46207;-61
2021/10/13 08:50:26;;;;;;;;;13.50;9.75;;;;;14.29;58.37;101969.56;5019441;28;45499;-61
2021/10/13 08:52:53;;;;;;;;;9.00;9.00;;;;;14.36;58.16;101971.56;5056474;28;45594;-62
2021/10/13 08:55:19;;;;;;;;;11.25;8.25;;;;;14.46;57.21;101984.03;5061528;28;45484;-60
2021/10/13 08:57:44;;;;;;;;;12.00;8.50;;;;;14.57;56.69;101977.88;5061271;28;45387;-59
2021/10/13 09:00:10;;;;;;;;;15.75;10.00;;;;;14.68;56.61;101975.16;5060273;28;66100;-60
2021/10/13 09:02:42;;;;;;;;;11.50;9.50;;;;;14.83;56.26;101978.38;5043314;28;45456;-61
2021/10/13 09:05:07;;;;;;;;;11.00;9.25;;;;;14.96;55.68;101972.88;5061211;28;45506;-62
2021/10/13 09:07:33;;;;;;;;;16.50;10.00;;;;;15.07;55.62;101971.97;5061392;28;46147;-60
2021/10/13 09:09:58;;;;;;;;;13.50;7.00;;;;;15.22;55.43;101970.66;5060967;28;45478;-59
2021/10/13 09:12:30;;;;;;;;;9.00;8.00;;;;;15.39;54.57;101979.81;5060869;28;60751;-60
2021/10/13 09:15:16;;;;;;;;;7.00;6.50;;;;;15.58;54.51;101981.69;5061313;28;45382;-60
2021/10/13 09:17:59;;;;;;;;;11.50;7.25;;;;;15.80;53.79;101982.47;5060700;28;45402;-59
2021/10/13 09:20:27;;;;;;;;;22.25;18.75;;;;;16.02;53.42;101981.44;5060693;28;45945;-62
2021/10/13 09:23:00;;;;;;;;;8.25;7.00;;;;;16.20;52.69;101979.94;5059361;28;45404;-60
2021/10/13 09:25:25;;;;;;;;;8.25;8.00;;;;;16.33;52.43;101980.50;5061005;28;45620;-61
2021/10/13 09:27:50;;;;;;;;;8.00;6.50;;;;;16.43;51.44;101976.03;5060620;28;45319;-60
2021/10/13 09:30:16;;;;;;;;;24.50;21.50;;;;;16.56;50.75;101980.22;5060453;28;50601;-59
2021/10/13 09:32:44;;;;;;;;;13.25;9.75;;;;;16.65;50.10;101990.00;5026257;28;45392;-60
2021/10/13 09:35:10;;;;;;;;;7.00;5.75;;;;;16.73;50.27;101982.16;5042768;28;45396;-61
2021/10/13 09:37:43;;;;;;;;;5.25;5.00;;;;;16.83;49.69;101986.63;5060012;28;59299;-60
2021/10/13 09:40:09;;;;;;;;;4.25;4.25;;;;;16.88;49.07;101990.53;5060085;28;48223;-59
2021/10/13 09:42:38;;;;;;;;;9.75;7.50;;;;;16.94;48.84;101982.97;5060855;28;45320;-61
2021/10/13 09:45:05;;;;;;;;;7.25;5.25;;;;;17.00;47.56;101980.59;5060842;28;45482;-60
2021/10/13 09:47:34;;;;;;;;;8.00;5.75;;;;;17.05;48.13;101978.38;5058555;28;46989;-60
2021/10/13 09:50:00;;;;;;;;;12.25;9.50;;;;;17.15;47.95;101981.00;5060562;28;45467;-60
2021/10/13 09:52:27;;;;;;;;;6.00;5.00;;;;;17.18;47.19;101986.03;5060959;28;45462;-60
2021/10/13 09:55:10;;;;;;;;;4.25;4.00;;;;;17.17;47.37;101983.50;5060678;28;45467;-60
2021/10/13 09:57:46;;;;;;;;;8.75;5.50;;;;;17.23;47.33;101985.59;5043216;28;45439;-60
2021/10/13 10:00:12;;;;;;;;;5.75;3.75;;;;;17.30;47.72;101984.03;5042814;28;45762;-60
2021/10/13 10:02:39;;;;;;;;;6.25;3.00;;;;;17.39;47.11;101992.13;5042684;28;45523;-60
2021/10/13 10:05:10;;;;;;;;;4.75;3.25;;;;;17.44;46.66;101990.69;5058857;28;45556;-60
2021/10/13 10:07:41;;;;;;;;;3.00;3.00;;;;;17.55;46.06;101992.31;5038957;28;47953;-59
2021/10/13 10:10:10;;;;;;;;;6.50;3.50;;;;;17.65;45.97;101995.78;5056307;28;45890;-60
2021/10/13 10:13:02;;;;;;;;;3.25;3.00;;;;;17.74;46.13;101996.72;5039021;28;45471;-59
2021/10/13 10:15:49;;;;;;;;;4.00;3.00;;;;;17.87;45.11;101982.22;5033813;28;45494;-60
2021/10/13 10:18:39;;;;;;;;;3.00;3.00;;;;;17.90;44.89;101977.47;5038951;28;46910;-59
2021/10/13 10:21:14;;;;;;;;;3.00;2.00;;;;;17.99;45.13;101977.56;5050918;28;45811;-60
2021/10/13 10:23:40;;;;;;;;;4.25;2.00;;;;;18.02;44.35;101977.25;5056695;28;45633;-60
2021/10/13 10:26:23;;;;;;;;;4.25;2.00;;;;;18.05;43.90;101990.25;5056092;28;45484;-61
2021/10/13 10:28:52;;;;;;;;;2.00;2.00;;;;;18.15;44.02;101982.25;5054332;28;46465;-60
2021/10/13 10:31:26;;;;;;;;;3.50;2.00;;;;;18.27;43.59;101983.69;5057104;28;45466;-60
2021/10/13 10:33:52;;;;;;;;;1.50;1.25;;;;;18.35;43.79;101988.25;5056917;28;45432;-60
2021/10/13 10:36:17;;;;;;;;;4.75;1.75;;;;;18.51;43.50;101987.56;5037952;28;61660;-60
2021/10/13 10:38:46;;;;;;;;;3.00;3.00;;;;;18.66;42.36;101985.19;5037876;28;53918;-59
2021/10/13 10:41:12;;;;;;;;;6.00;4.00;;;;;18.72;42.14;101984.56;5036641;28;45453;-60
2021/10/13 10:43:37;;;;;;;;;7.25;5.50;;;;;18.70;42.00;101981.22;5055176;28;61101;-60
2021/10/13 10:46:02;;;;;;;;;1.00;1.00;;;;;18.76;41.86;101980.59;5056138;28;47409;-60
2021/10/13 10:48:48;;;;;;;;;5.00;5.00;;;;;18.88;41.78;101988.34;5055534;28;68759;-60
2021/10/13 10:51:13;;;;;;;;;2.00;2.00;;;;;18.87;41.48;101981.34;5054015;28;67566;-60
2021/10/13 10:53:39;;;;;;;;;3.00;3.00;;;;;18.82;41.19;101980.00;5056841;28;45366;-60
2021/10/13 10:56:19;;;;;;;;;3.00;2.00;;;;;18.70;41.31;101981.22;5056940;28;45450;-60
2021/10/13 10:59:09;;;;;;;;;6.00;3.00;;;;;18.61;41.32;101983.00;5068864;28;47582;-60
2021/10/13 11:01:35;;;;;;;;;3.00;3.00;;;;;18.55;40.75;101980.94;5049951;28;45751;-59
2021/10/13 11:04:05;;;;;;;;;2.00;2.00;;;;;18.50;40.89;101985.88;5038119;28;45387;-60
2021/10/13 11:06:33;;;;;;;;;2.75;1.00;;;;;18.46;41.10;101974.72;5038754;28;45594;-61
2021/10/13 11:09:02;;;;;;;;;3.50;2.00;;;;;18.43;40.91;101983.00;5037830;28;46860;-60
2021/10/13 11:11:32;;;;;;;;;1.75;1.75;;;;;18.33;40.39;101991.06;5056062;28;45507;-60
2021/10/13 11:14:03;;;;;;;;;3.00;3.00;;;;;18.18;40.13;101997.91;5056285;28;45501;-60
2021/10/13 11:16:28;;;;;;;;;1.75;1.00;;;;;18.06;40.19;102007.91;5055719;28;45431;-60
2021/10/13 11:19:04;;;;;;;;;2.25;1.75;;;;;18.04;40.70;101996.56;5055645;28;46129;-60
2021/10/13 11:21:29;;;;;;;;;4.50;1.75;;;;;18.11;40.49;102007.47;5022128;28;45537;-60